Time;durP1;ratioP1;P1;durP2;ratioP2;P2;SDS_P1;SDS_P2;PMS_P1;PMS_P2;Temp;Humidity;BMP_temperature;BMP_pressure;BME280_temperature;BME280_humidity;BME280_pressure;Samples;Min_cycle;Max_cycle;Signal;HPM_P1;HPM_P2
2021/10/01 00:01:12;;;;;;;;;;;;;;;11.99;59.90;100059.28;5049283;28;19917;-72
2021/10/01 00:03:38;;;;;;;;;;;;;;;12.00;60.58;100048.59;5049143;28;19923;-73
2021/10/01 00:06:03;;;;;;;;;;;;;;;12.01;60.33;100054.75;5048940;28;19920;-72
2021/10/01 00:08:28;;;;;;;;;;;;;;;11.99;59.61;100064.56;5040336;28;19912;-72
2021/10/01 00:10:53;;;;;;;;;;;;;;;12.00;60.14;100045.97;5047444;28;19919;-72
2021/10/01 00:13:19;;;;;;;;;;;;;;;11.96;60.72;100051.47;5048957;28;19935;-72
2021/10/01 00:15:44;;;;;;;;;;;;;;;11.93;60.75;100047.19;5049468;28;19917;-72
2021/10/01 00:18:09;;;;;;;;;;;;;;;11.92;61.27;100040.22;5048380;28;19924;-72
2021/10/01 00:20:35;;;;;;;;;;;;;;;11.96;61.01;100030.34;5047760;28;19938;-72
2021/10/01 00:23:00;;;;;;;;;;;;;;;11.97;61.19;100032.06;5048831;28;19912;-71
2021/10/01 00:25:25;;;;;;;;;;;;;;;11.92;60.86;100026.16;5049942;28;20380;-72
2021/10/01 00:27:50;;;;;;;;;;;;;;;11.93;60.62;100015.50;5049294;28;19919;-72
2021/10/01 00:30:16;;;;;;;;;;;;;;;11.87;61.69;100022.91;5048054;28;19913;-71
2021/10/01 00:32:41;;;;;;;;;;;;;;;11.85;61.27;100011.53;5048112;28;19919;-71
2021/10/01 00:35:06;;;;;;;;;;;;;;;11.86;61.13;100007.94;5049006;28;19921;-71
2021/10/01 00:37:32;;;;;;;;;;;;;;;11.79;61.88;100005.63;5049612;28;20371;-71
2021/10/01 00:39:57;;;;;;;;;;;;;;;11.79;61.58;100007.41;5052608;28;19916;-73
2021/10/01 00:42:22;;;;;;;;;;;;;;;11.78;61.40;100001.25;5051932;28;19917;-71
2021/10/01 00:44:48;;;;;;;;;;;;;;;11.82;60.93;100008.09;5052878;28;20273;-71
2021/10/01 00:47:13;;;;;;;;;;;;;;;11.85;61.22;100001.81;5053258;28;20371;-71
2021/10/01 00:49:38;;;;;;;;;;;;;;;11.85;60.50;99999.16;5052549;28;19913;-71
2021/10/01 00:52:04;;;;;;;;;;;;;;;11.88;60.50;100000.81;5052244;28;19921;-71
2021/10/01 00:54:29;;;;;;;;;;;;;;;11.90;60.40;99998.97;5053251;28;20283;-72
2021/10/01 00:56:56;;;;;;;;;;;;;;;11.87;60.24;99992.06;5052609;28;20430;-71
2021/10/01 00:59:21;;;;;;;;;;;;;;;11.86;59.45;99986.81;5052571;28;19952;-71
2021/10/01 01:01:46;;;;;;;;;;;;;;;11.86;59.36;99982.38;5025623;28;19952;-71
2021/10/01 01:04:12;;;;;;;;;;;;;;;11.90;59.14;99972.53;5052509;28;19983;-72
2021/10/01 01:06:46;;;;;;;;;;;;;;;11.95;58.84;99978.44;5052469;28;19929;-72
2021/10/01 01:09:30;;;;;;;;;;;;;;;11.98;59.19;99973.00;5052603;28;19919;-71
2021/10/01 01:12:21;;;;;;;;;;;;;;;12.01;59.00;99967.53;5051650;28;19913;-71
2021/10/01 01:15:04;;;;;;;;;;;;;;;12.05;59.00;99973.53;5052910;28;19921;-72
2021/10/01 01:17:36;;;;;;;;;;;;;;;12.06;58.93;99972.59;5052333;28;19920;-71
2021/10/01 01:20:07;;;;;;;;;;;;;;;12.10;58.65;99968.84;5052404;28;20399;-70
2021/10/01 01:22:45;;;;;;;;;;;;;;;12.10;58.18;99961.78;5051603;28;20039;-74
2021/10/01 01:25:13;;;;;;;;;;;;;;;12.08;58.21;99960.16;5052021;28;20067;-72
2021/10/01 01:27:59;;;;;;;;;;;;;;;12.10;58.02;99958.28;5047981;28;19928;-71
2021/10/01 01:30:25;;;;;;;;;;;;;;;12.11;58.71;99954.69;5015301;28;19914;-72
2021/10/01 01:32:53;;;;;;;;;;;;;;;12.08;57.73;99957.50;5012016;28;19913;-72
2021/10/01 01:35:20;;;;;;;;;;;;;;;12.10;58.41;99953.00;5016385;28;20266;-72
2021/10/01 01:37:51;;;;;;;;;;;;;;;12.11;57.58;99945.00;5012100;28;20316;-72
2021/10/01 01:40:18;;;;;;;;;;;;;;;12.12;58.43;99935.28;5011893;28;19917;-71
2021/10/01 01:42:44;;;;;;;;;;;;;;;12.13;58.21;99932.53;5011001;28;20294;-71
2021/10/01 01:45:11;;;;;;;;;;;;;;;12.17;57.70;99925.31;5012248;28;20396;-72
2021/10/01 01:47:38;;;;;;;;;;;;;;;12.17;57.79;99931.44;5012094;28;19913;-72
2021/10/01 01:50:04;;;;;;;;;;;;;;;12.18;57.95;99925.25;5014271;28;20405;-73
2021/10/01 01:52:31;;;;;;;;;;;;;;;12.17;57.52;99928.81;5026674;28;19992;-73
2021/10/01 01:54:57;;;;;;;;;;;;;;;12.17;57.69;99925.31;5028073;28;20010;-72
2021/10/01 01:57:25;;;;;;;;;;;;;;;12.19;57.76;99928.75;5032141;28;20288;-73
2021/10/01 01:59:51;;;;;;;;;;;;;;;12.19;57.82;99929.59;5059257;28;19913;-72
2021/10/01 02:02:17;;;;;;;;;;;;;;;12.18;57.64;99930.53;5050799;28;19947;-74
2021/10/01 02:04:43;;;;;;;;;;;;;;;12.18;57.77;99924.38;5050503;28;19924;-73
2021/10/01 02:07:09;;;;;;;;;;;;;;;12.18;57.67;99921.72;5051277;28;20316;-72
2021/10/01 02:09:35;;;;;;;;;;;;;;;12.15;57.96;99924.53;5051151;28;19920;-72
2021/10/01 02:12:01;;;;;;;;;;;;;;;12.13;57.85;99915.84;5048782;28;19917;-73
2021/10/01 02:14:27;;;;;;;;;;;;;;;12.16;58.15;99919.19;5051281;28;19912;-73
2021/10/01 02:16:54;;;;;;;;;;;;;;;12.16;57.97;99911.25;5050354;28;19917;-71
2021/10/01 02:19:20;;;;;;;;;;;;;;;12.13;57.94;99908.75;5053213;28;19919;-72
2021/10/01 02:21:47;;;;;;;;;;;;;;;12.17;57.88;99909.47;5051185;28;19913;-71
2021/10/01 02:24:13;;;;;;;;;;;;;;;12.16;57.78;99900.69;5051421;28;20001;-72
2021/10/01 02:26:43;;;;;;;;;;;;;;;12.19;57.76;99899.66;5051329;28;19913;-72
2021/10/01 02:29:08;;;;;;;;;;;;;;;12.19;57.94;99902.31;5052361;28;19917;-73
2021/10/01 02:31:55;;;;;;;;;;;;;;;12.22;58.42;99905.63;5051843;28;19974;-71
2021/10/01 02:34:22;;;;;;;;;;;;;;;12.23;57.88;99898.53;5049926;28;19916;-70
2021/10/01 02:36:47;;;;;;;;;;;;;;;12.24;58.21;99887.91;5050989;28;19913;-72
2021/10/01 02:39:12;;;;;;;;;;;;;;;12.24;57.65;99893.19;5050927;28;19966;-70
2021/10/01 02:41:37;;;;;;;;;;;;;;;12.22;57.52;99894.19;5048712;28;19943;-72
2021/10/01 02:44:03;;;;;;;;;;;;;;;12.22;57.24;99892.41;5049350;28;19917;-72
2021/10/01 02:46:28;;;;;;;;;;;;;;;12.23;58.41;99886.19;5050926;28;19951;-72
2021/10/01 02:48:53;;;;;;;;;;;;;;;12.23;57.97;99878.28;5049510;28;19913;-72
2021/10/01 02:51:19;;;;;;;;;;;;;;;12.25;57.91;99873.72;5050243;28;19913;-71
2021/10/01 02:53:55;;;;;;;;;;;;;;;12.24;57.81;99882.59;5050724;28;20026;-71
2021/10/01 02:56:23;;;;;;;;;;;;;;;12.24;57.52;99877.31;5049374;28;19912;-72
2021/10/01 02:58:57;;;;;;;;;;;;;;;12.19;57.84;99875.88;5050717;28;19912;-72
2021/10/01 03:01:25;;;;;;;;;;;;;;;12.17;57.87;99870.66;5048576;28;19916;-72
2021/10/01 03:03:52;;;;;;;;;;;;;;;12.19;58.06;99873.22;5050253;28;19955;-72
2021/10/01 03:06:18;;;;;;;;;;;;;;;12.18;58.30;99876.78;5050159;28;19924;-72
2021/10/01 03:08:44;;;;;;;;;;;;;;;12.13;58.06;99887.63;5050256;28;20069;-72
2021/10/01 03:11:10;;;;;;;;;;;;;;;12.09;58.22;99883.44;5049381;28;19959;-71
2021/10/01 03:13:38;;;;;;;;;;;;;;;12.09;58.64;99882.59;5050167;28;19913;-73
2021/10/01 03:16:03;;;;;;;;;;;;;;;12.07;58.18;99882.66;5048549;28;19919;-71
2021/10/01 03:18:29;;;;;;;;;;;;;;;12.07;58.85;99882.66;5049837;28;20269;-73
2021/10/01 03:20:54;;;;;;;;;;;;;;;12.07;58.58;99879.19;5015913;28;19917;-72
2021/10/01 03:23:21;;;;;;;;;;;;;;;12.04;58.64;99874.91;5010489;28;19918;-72
2021/10/01 03:25:46;;;;;;;;;;;;;;;11.98;58.36;99865.50;5008689;28;19924;-72
2021/10/01 03:28:12;;;;;;;;;;;;;;;11.98;58.91;99872.59;5010151;28;20305;-73
2021/10/01 03:30:39;;;;;;;;;;;;;;;11.95;59.02;99864.84;5009108;28;19917;-73
2021/10/01 03:33:04;;;;;;;;;;;;;;;11.93;58.88;99862.25;5009357;28;19917;-72
2021/10/01 03:35:30;;;;;;;;;;;;;;;11.91;58.61;99860.63;5008841;28;20288;-72
2021/10/01 03:37:56;;;;;;;;;;;;;;;11.88;59.27;99866.09;5009777;28;20289;-72
2021/10/01 03:40:21;;;;;;;;;;;;;;;11.86;59.33;99857.38;5010506;28;19924;-71
2021/10/01 03:42:47;;;;;;;;;;;;;;;11.83;59.12;99858.38;5009738;28;20000;-72
2021/10/01 03:45:12;;;;;;;;;;;;;;;11.86;59.14;99854.72;5010256;28;19923;-73
2021/10/01 03:47:37;;;;;;;;;;;;;;;11.81;58.92;99857.59;5009588;28;19918;-72
2021/10/01 03:50:03;;;;;;;;;;;;;;;11.77;59.38;99862.22;5008603;28;19909;-73
2021/10/01 03:52:28;;;;;;;;;;;;;;;11.80;59.17;99854.13;5009656;28;19917;-72
2021/10/01 03:54:54;;;;;;;;;;;;;;;11.82;59.27;99852.25;5011003;28;19917;-73
2021/10/01 03:57:19;;;;;;;;;;;;;;;11.85;59.31;99848.59;5011459;28;19963;-73
2021/10/01 03:59:45;;;;;;;;;;;;;;;11.89;59.40;99855.47;5015294;28;20016;-73
2021/10/01 04:02:10;;;;;;;;;;;;;;;11.86;58.51;99852.06;5022451;28;19913;-72
2021/10/01 04:04:35;;;;;;;;;;;;;;;11.83;59.15;99853.09;5031081;28;19916;-73
2021/10/01 04:07:01;;;;;;;;;;;;;;;11.82;58.82;99846.13;5012119;28;19917;-73
2021/10/01 04:09:27;;;;;;;;;;;;;;;11.84;59.03;99846.91;5009353;28;19919;-72
2021/10/01 04:11:53;;;;;;;;;;;;;;;11.81;59.12;99845.28;5009423;28;19972;-74
2021/10/01 04:14:20;;;;;;;;;;;;;;;11.81;59.10;99834.72;5009659;28;19945;-73
2021/10/01 04:16:46;;;;;;;;;;;;;;;11.76;59.35;99831.47;5009521;28;19913;-72
2021/10/01 04:19:11;;;;;;;;;;;;;;;11.72;59.27;99829.91;5009279;28;19909;-73
2021/10/01 04:21:36;;;;;;;;;;;;;;;11.71;59.28;99820.25;5008829;28;19913;-72
2021/10/01 04:24:01;;;;;;;;;;;;;;;11.70;59.16;99823.84;5009276;28;19937;-72
2021/10/01 04:26:27;;;;;;;;;;;;;;;11.74;59.49;99821.88;5009535;28;20381;-71
2021/10/01 04:28:52;;;;;;;;;;;;;;;11.75;59.37;99813.88;5009851;28;19927;-72
2021/10/01 04:31:17;;;;;;;;;;;;;;;11.74;59.09;99814.84;5008762;28;19921;-71
2021/10/01 04:33:43;;;;;;;;;;;;;;;11.72;59.53;99803.50;5007894;28;19914;-72
2021/10/01 04:36:11;;;;;;;;;;;;;;;11.72;59.38;99798.22;5009422;28;19925;-71
2021/10/01 04:38:36;;;;;;;;;;;;;;;11.76;59.78;99805.06;5007753;28;19956;-72
2021/10/01 04:41:01;;;;;;;;;;;;;;;11.79;59.18;99798.75;5008815;28;19944;-71
2021/10/01 04:43:26;;;;;;;;;;;;;;;11.79;58.76;99802.22;5008302;28;20373;-71
2021/10/01 04:45:52;;;;;;;;;;;;;;;11.83;58.83;99794.97;5009640;28;19940;-72
2021/10/01 04:48:17;;;;;;;;;;;;;;;11.83;59.00;99797.63;5007759;28;19917;-72
2021/10/01 04:50:42;;;;;;;;;;;;;;;11.81;59.10;99794.22;5009050;28;20320;-73
2021/10/01 04:53:08;;;;;;;;;;;;;;;11.84;58.73;99791.44;5008271;28;19921;-72
2021/10/01 04:55:33;;;;;;;;;;;;;;;11.86;58.73;99791.31;5008820;28;20281;-72
2021/10/01 04:58:00;;;;;;;;;;;;;;;11.88;58.70;99790.34;5009423;28;19996;-72
2021/10/01 05:00:25;;;;;;;;;;;;;;;11.86;58.98;99797.44;5009558;28;19917;-71
2021/10/01 05:02:50;;;;;;;;;;;;;;;11.88;58.98;99787.69;5012156;28;19932;-73
2021/10/01 05:05:15;;;;;;;;;;;;;;;11.91;58.91;99786.66;5015410;28;19933;-71
2021/10/01 05:07:40;;;;;;;;;;;;;;;11.88;58.85;99778.91;5015259;28;19917;-72
2021/10/01 05:10:06;;;;;;;;;;;;;;;11.87;59.34;99780.72;5013289;28;19985;-72
2021/10/01 05:12:31;;;;;;;;;;;;;;;11.85;59.02;99781.72;5010544;28;19948;-72
2021/10/01 05:14:56;;;;;;;;;;;;;;;11.89;58.55;99791.19;5009776;28;19913;-72
2021/10/01 05:17:25;;;;;;;;;;;;;;;11.88;58.97;99787.69;5008941;28;19925;-72
2021/10/01 05:19:50;;;;;;;;;;;;;;;11.87;58.93;99787.78;5023312;28;19913;-71
2021/10/01 05:22:16;;;;;;;;;;;;;;;11.88;58.72;99784.22;5026808;28;19920;-72
2021/10/01 05:24:42;;;;;;;;;;;;;;;11.88;59.22;99790.34;5029383;28;19917;-72
2021/10/01 05:27:07;;;;;;;;;;;;;;;11.87;58.41;99787.78;5032257;28;20016;-73
2021/10/01 05:29:32;;;;;;;;;;;;;;;11.88;58.85;99789.50;5032094;28;19913;-72
2021/10/01 05:31:58;;;;;;;;;;;;;;;11.87;59.21;99786.00;5030775;28;19920;-72
2021/10/01 05:34:23;;;;;;;;;;;;;;;11.90;58.90;99783.19;5031835;28;20365;-72
2021/10/01 05:36:48;;;;;;;;;;;;;;;11.90;58.20;99780.53;5031945;28;19929;-72
2021/10/01 05:39:13;;;;;;;;;;;;;;;11.90;58.32;99777.91;5031735;28;19913;-71
2021/10/01 05:41:39;;;;;;;;;;;;;;;11.89;58.56;99776.22;5030995;28;19974;-71
2021/10/01 05:44:04;;;;;;;;;;;;;;;11.87;58.56;99764.88;5031106;28;19971;-73
2021/10/01 05:46:29;;;;;;;;;;;;;;;11.88;58.37;99766.56;5031786;28;19978;-72
2021/10/01 05:48:59;;;;;;;;;;;;;;;11.91;58.69;99768.19;5031796;28;20528;-73
2021/10/01 05:51:24;;;;;;;;;;;;;;;11.93;58.51;99772.44;5031104;28;20293;-71
2021/10/01 05:56:33;;;;;;;;;;;;;;;11.96;58.48;99758.22;5033981;28;20004;-72
2021/10/01 05:58:58;;;;;;;;;;;;;;;11.95;58.21;99760.00;5032123;28;20003;-72
2021/10/01 06:01:23;;;;;;;;;;;;;;;11.95;58.41;99764.44;5028734;28;19913;-72
2021/10/01 06:03:51;;;;;;;;;;;;;;;11.95;58.29;99760.00;5011131;28;19937;-72
2021/10/01 06:06:16;;;;;;;;;;;;;;;11.94;58.28;99758.31;5011242;28;19917;-72
2021/10/01 06:08:41;;;;;;;;;;;;;;;11.94;58.71;99768.03;5011926;28;19913;-71
2021/10/01 06:11:06;;;;;;;;;;;;;;;11.99;58.31;99750.13;5009475;28;19918;-72
2021/10/01 06:13:33;;;;;;;;;;;;;;;12.02;58.16;99749.97;5011763;28;19917;-71
2021/10/01 06:15:58;;;;;;;;;;;;;;;12.05;58.31;99752.41;5011853;28;20294;-73
2021/10/01 06:18:24;;;;;;;;;;;;;;;12.07;57.73;99750.56;5011815;28;19920;-71
2021/10/01 06:20:49;;;;;;;;;;;;;;;12.10;57.71;99747.72;5011543;28;19990;-72
2021/10/01 06:23:16;;;;;;;;;;;;;;;12.18;58.15;99744.66;5010667;28;19917;-72
2021/10/01 06:25:44;;;;;;;;;;;;;;;12.23;57.98;99746.13;5011888;28;19913;-72
2021/10/01 06:28:09;;;;;;;;;;;;;;;12.28;57.14;99752.91;5011507;28;19921;-73
2021/10/01 06:30:35;;;;;;;;;;;;;;;12.31;57.29;99745.69;5011482;28;20328;-73
2021/10/01 06:33:00;;;;;;;;;;;;;;;12.39;57.16;99747.88;5011307;28;20324;-72
2021/10/01 06:35:25;;;;;;;;;;;;;;;12.41;56.93;99752.13;5010233;28;20424;-72
2021/10/01 06:37:50;;;;;;;;;;;;;;;12.48;57.26;99752.66;5011463;28;19913;-71
2021/10/01 06:40:16;;;;;;;;;;;;;;;12.55;56.69;99754.00;5011010;28;19913;-71
2021/10/01 06:42:46;;;;;;;;;;;;;;;12.58;57.31;99753.81;5012059;28;19944;-71
2021/10/01 06:45:16;;;;;;;;;;;;;;;12.65;57.08;99749.00;5018369;28;19920;-72
2021/10/01 06:47:50;;;;;;;;;;;;;;;12.70;56.09;99751.38;5012584;28;19920;-73
2021/10/01 08:19:41;;;;;;;;;;;;;;;16.24;47.15;99709.47;5029427;28;19940;-73
2021/10/01 08:22:08;;;;;;;;;;;;;;;16.51;46.41;99713.66;5028669;28;19913;-72
2021/10/01 08:24:34;;;;;;;;;;;;;;;16.58;46.05;99712.25;5029393;28;20377;-73
2021/10/01 08:27:00;;;;;;;;;;;;;;;16.50;45.92;99704.84;5029097;28;19944;-72
2021/10/01 08:29:25;;;;;;;;;;;;;;;16.42;45.75;99701.06;5013189;28;19953;-72
2021/10/01 08:31:53;;;;;;;;;;;;;;;16.38;45.89;99697.78;5007995;28;19914;-71
2021/10/01 08:34:20;;;;;;;;;;;;;;;16.36;46.44;99699.69;5009018;28;19948;-71
2021/10/01 08:36:45;;;;;;;;;;;;;;;16.44;46.62;99700.00;5009109;28;19921;-72
2021/10/01 08:39:11;;;;;;;;;;;;;;;16.47;45.75;99697.09;5008963;28;19914;-72
2021/10/01 08:41:37;;;;;;;;;;;;;;;16.65;46.13;99691.34;5006803;28;19921;-72
2021/10/01 08:44:03;;;;;;;;;;;;;;;16.93;45.25;99690.97;5008766;28;19964;-74
2021/10/01 08:46:30;;;;;;;;;;;;;;;17.66;43.98;99678.13;5009040;28;19913;-72
2021/10/01 08:48:57;;;;;;;;;;;;;;;18.34;43.01;99678.00;5008939;28;19920;-73
2021/10/01 08:51:24;;;;;;;;;;;;;;;18.84;41.59;99683.56;5008585;28;19921;-74
2021/10/01 08:53:52;;;;;;;;;;;;;;;19.40;40.20;99675.16;5007615;28;19920;-72
2021/10/01 08:56:17;;;;;;;;;;;;;;;19.70;39.18;99670.78;5009091;28;19913;-72
2021/10/01 08:58:43;;;;;;;;;;;;;;;20.27;38.45;99661.13;5009763;28;19913;-73
2021/10/01 09:01:08;;;;;;;;;;;;;;;20.84;37.18;99658.56;5010717;28;20011;-72
2021/10/01 09:03:33;;;;;;;;;;;;;;;21.62;35.94;99652.94;5012708;28;20336;-73
2021/10/01 09:05:58;;;;;;;;;;;;;;;22.05;35.30;99657.59;5013017;28;20270;-71
2021/10/01 09:08:24;;;;;;;;;;;;;;;22.46;34.69;99654.47;5013437;28;20431;-72
2021/10/01 09:11:03;;;;;;;;;;;;;;;23.02;33.22;99663.16;5012418;28;19913;-74
2021/10/01 09:13:28;;;;;;;;;;;;;;;23.09;32.84;99653.44;5012924;28;19914;-73
2021/10/01 09:16:02;;;;;;;;;;;;;;;23.33;32.34;99656.25;5013065;28;19914;-73
2021/10/01 09:18:28;;;;;;;;;;;;;;;23.12;32.50;99659.34;5013054;28;19913;-72
2021/10/01 09:21:04;;;;;;;;;;;;;;;23.50;31.86;99657.16;5014728;28;19984;-74
2021/10/01 09:23:35;;;;;;;;;;;;;;;23.28;32.04;99655.91;5018992;28;20341;-72
2021/10/01 09:26:27;;;;;;;;;;;;;;;23.74;31.82;99660.97;5011657;28;19914;-72
2021/10/01 09:28:57;;;;;;;;;;;;;;;23.82;31.72;99654.78;5013525;28;19918;-73
2021/10/01 09:31:29;;;;;;;;;;;;;;;24.04;31.47;99645.22;5011586;28;19987;-74
2021/10/01 09:33:54;;;;;;;;;;;;;;;24.39;31.17;99641.38;5012478;28;20219;-73
2021/10/01 09:36:19;;;;;;;;;;;;;;;24.63;30.62;99649.50;5012048;28;19913;-72
2021/10/01 09:38:44;;;;;;;;;;;;;;;24.80;30.08;99641.41;5011734;28;19913;-72
2021/10/01 09:41:10;;;;;;;;;;;;;;;24.16;31.68;99639.34;5012537;28;19917;-73
2021/10/01 09:43:36;;;;;;;;;;;;;;;23.88;31.29;99640.66;5012833;28;20370;-73
2021/10/01 09:46:02;;;;;;;;;;;;;;;24.11;30.86;99644.41;5011187;28;19917;-72
2021/10/01 09:48:28;;;;;;;;;;;;;;;23.72;31.46;99638.72;5012416;28;19917;-72
2021/10/01 09:51:05;;;;;;;;;;;;;;;23.63;32.11;99629.81;5010212;28;19913;-72
2021/10/01 09:53:40;;;;;;;;;;;;;;;23.59;31.94;99633.81;5022224;28;19929;-73
2021/10/01 09:56:16;;;;;;;;;;;;;;;23.77;31.74;99639.09;5031498;28;19919;-72
2021/10/01 09:58:41;;;;;;;;;;;;;;;24.05;31.27;99628.91;5030747;28;19998;-72
2021/10/01 10:01:06;;;;;;;;;;;;;;;22.72;33.20;99633.00;5029154;28;19956;-72
2021/10/01 10:03:31;;;;;;;;;;;;;;;22.26;33.96;99626.94;5031106;28;20018;-72
2021/10/01 10:06:01;;;;;;;;;;;;;;;22.24;33.98;99631.63;5031260;28;19952;-73
2021/10/01 10:08:27;;;;;;;;;;;;;;;21.68;35.28;99622.78;5030262;28;19913;-72
2021/10/01 10:10:55;;;;;;;;;;;;;;;22.40;34.06;99628.25;5029587;28;19917;-72
2021/10/01 10:13:34;;;;;;;;;;;;;;;22.64;33.38;99627.56;5030503;28;19967;-72
2021/10/01 10:16:07;;;;;;;;;;;;;;;22.42;34.14;99620.84;5031112;28;20020;-73
2021/10/01 10:18:32;;;;;;;;;;;;;;;23.63;32.24;99616.34;5024786;28;19960;-73
2021/10/01 10:20:57;;;;;;;;;;;;;;;23.61;32.57;99620.22;5010427;28;19956;-72
2021/10/01 10:23:22;;;;;;;;;;;;;;;23.06;33.29;99624.16;5009844;28;20369;-72
2021/10/01 10:25:48;;;;;;;;;;;;;;;21.95;34.82;99608.50;5010808;28;19925;-72
2021/10/01 10:28:13;;;;;;;;;;;;;;;21.45;35.96;99617.00;5009833;28;19919;-72
2021/10/01 10:30:38;;;;;;;;;;;;;;;20.28;37.52;99616.44;5011120;28;19924;-72
2021/10/01 10:33:23;;;;;;;;;;;;;;;19.94;38.40;99620.41;5010738;28;19996;-71
2021/10/01 10:35:48;;;;;;;;;;;;;;;19.80;39.18;99619.97;5010755;28;20001;-72
2021/10/01 10:38:32;;;;;;;;;;;;;;;19.76;38.94;99618.53;5010629;28;20381;-74
2021/10/01 10:41:18;;;;;;;;;;;;;;;19.61;39.39;99605.53;5010091;28;19986;-74
2021/10/01 10:43:46;;;;;;;;;;;;;;;19.63;39.90;99600.88;5010693;28;19920;-72
2021/10/01 10:46:31;;;;;;;;;;;;;;;19.55;40.50;99599.91;5010235;28;19920;-72
2021/10/01 10:49:15;;;;;;;;;;;;;;;19.65;40.58;99598.94;5010269;28;19975;-73
2021/10/01 10:51:53;;;;;;;;;;;;;;;19.51;40.80;99586.78;5009935;28;20292;-73
2021/10/01 10:54:18;;;;;;;;;;;;;;;19.51;40.93;99585.94;5008879;28;20337;-73
2021/10/01 10:56:43;;;;;;;;;;;;;;;19.28;41.61;99591.53;5010775;28;19919;-72
2021/10/01 10:59:27;;;;;;;;;;;;;;;19.19;42.09;99586.16;5010704;28;19913;-72
2021/10/01 11:02:12;;;;;;;;;;;;;;;19.24;41.83;99594.59;5010413;28;19920;-72
2021/10/01 11:04:38;;;;;;;;;;;;;;;19.13;41.83;99592.03;5009962;28;19917;-72
2021/10/01 11:07:04;;;;;;;;;;;;;;;19.04;42.08;99589.19;5010824;28;19921;-73
2021/10/01 11:09:30;;;;;;;;;;;;;;;18.93;42.42;99583.13;5010409;28;19949;-72
2021/10/01 11:11:58;;;;;;;;;;;;;;;19.05;41.91;99587.34;5009999;28;19976;-73
2021/10/01 11:14:25;;;;;;;;;;;;;;;19.13;42.04;99584.03;5010323;28;19952;-72
2021/10/01 11:16:53;;;;;;;;;;;;;;;18.99;41.70;99575.38;5010705;28;20437;-72
2021/10/01 11:19:39;;;;;;;;;;;;;;;18.87;42.04;99571.13;5008855;28;19983;-73
2021/10/01 11:22:23;;;;;;;;;;;;;;;18.89;42.33;99579.84;5011846;28;19999;-72
2021/10/01 11:24:49;;;;;;;;;;;;;;;18.81;42.19;99569.00;5010941;28;19952;-71
2021/10/01 11:27:14;;;;;;;;;;;;;;;18.90;42.20;99565.50;5010427;28;19920;-72
2021/10/01 11:29:39;;;;;;;;;;;;;;;18.80;41.94;99551.25;5010488;28;20008;-73
2021/10/01 11:32:09;;;;;;;;;;;;;;;18.95;42.56;99557.94;5009638;28;19913;-73
2021/10/01 11:34:40;;;;;;;;;;;;;;;18.95;42.79;99544.59;5024137;28;20061;-73
2021/10/01 11:37:24;;;;;;;;;;;;;;;18.91;42.41;99545.00;5029428;28;20022;-72
2021/10/01 11:39:50;;;;;;;;;;;;;;;18.88;42.01;99544.28;5027890;28;19924;-72
2021/10/01 11:42:21;;;;;;;;;;;;;;;18.72;42.34;99540.38;5028801;28;19913;-72
2021/10/01 11:44:47;;;;;;;;;;;;;;;18.75;43.04;99545.44;5029594;28;19913;-72
2021/10/01 11:47:12;;;;;;;;;;;;;;;18.88;42.66;99546.09;5029291;28;19917;-73
2021/10/01 11:49:38;;;;;;;;;;;;;;;18.88;42.53;99540.78;5029127;28;20385;-72
2021/10/01 11:52:06;;;;;;;;;;;;;;;18.88;42.07;99538.09;5028437;28;20381;-74
2021/10/01 11:54:32;;;;;;;;;;;;;;;18.92;42.51;99533.31;5029213;28;20341;-71
2021/10/01 11:56:58;;;;;;;;;;;;;;;18.99;42.08;99529.13;5028454;28;20007;-72
2021/10/01 11:59:25;;;;;;;;;;;;;;;18.97;42.50;99525.75;5028881;28;19913;-73
2021/10/01 12:02:00;;;;;;;;;;;;;;;19.02;42.87;99526.19;5026978;28;19913;-72
2021/10/01 12:04:29;;;;;;;;;;;;;;;19.12;42.66;99534.22;5029119;28;19916;-72
2021/10/01 12:06:59;;;;;;;;;;;;;;;19.08;42.48;99529.16;5029227;28;20602;-72
2021/10/01 12:09:25;;;;;;;;;;;;;;;19.08;43.31;99531.00;5028891;28;19920;-72
2021/10/01 12:11:50;;;;;;;;;;;;;;;18.96;42.29;99516.88;5027771;28;19999;-72
2021/10/01 12:14:17;;;;;;;;;;;;;;;18.89;41.98;99518.41;5027305;28;20019;-72
2021/10/01 12:17:04;;;;;;;;;;;;;;;19.02;42.70;99521.66;5028725;28;19917;-73
2021/10/01 12:19:33;;;;;;;;;;;;;;;19.17;42.16;99511.44;5012607;23;20361;-73
2021/10/01 12:22:10;;;;;;;;;;;;;;;19.22;41.09;99509.22;4992317;28;19921;-73
2021/10/01 12:24:44;;;;;;;;;;;;;;;19.20;40.31;99505.00;4989749;28;20019;-72
2021/10/01 12:27:11;;;;;;;;;;;;;;;19.04;40.34;99506.34;4989408;28;19920;-72
2021/10/01 12:29:50;;;;;;;;;;;;;;;19.02;40.45;99504.81;4989387;28;19945;-73
2021/10/01 12:32:17;;;;;;;;;;;;;;;19.07;40.10;99505.22;5003880;28;19913;-73
2021/10/01 12:34:48;;;;;;;;;;;;;;;19.04;40.51;99506.34;4992347;28;19926;-73
2021/10/01 12:37:14;;;;;;;;;;;;;;;19.06;40.36;99508.91;4993322;28;19918;-71
2021/10/01 12:39:41;;;;;;;;;;;;;;;19.00;40.83;99504.09;4993545;28;19913;-72
2021/10/01 12:42:07;;;;;;;;;;;;;;;18.88;41.32;99496.19;4993174;28;19945;-72
2021/10/01 12:44:37;;;;;;;;;;;;;;;18.92;41.72;99502.09;4993115;28;19945;-71
2021/10/01 12:47:16;;;;;;;;;;;;;;;19.01;41.63;99509.31;4993335;28;20301;-72
2021/10/01 12:49:42;;;;;;;;;;;;;;;19.02;42.27;99500.28;5007780;28;19980;-73
2021/10/01 12:52:13;;;;;;;;;;;;;;;19.04;42.68;99498.34;4992565;28;19917;-72
2021/10/01 12:54:41;;;;;;;;;;;;;;;18.97;43.01;99499.03;4991255;28;19925;-72
2021/10/01 12:57:12;;;;;;;;;;;;;;;18.99;42.91;99497.06;4993104;28;19921;-72
2021/10/01 12:59:51;;;;;;;;;;;;;;;19.04;42.87;99490.31;4992687;28;20004;-71
2021/10/01 13:02:16;;;;;;;;;;;;;;;19.12;43.37;99492.31;4992037;28;19965;-74
2021/10/01 13:05:01;;;;;;;;;;;;;;;19.18;43.28;99494.44;4992794;28;19922;-71
2021/10/01 13:07:27;;;;;;;;;;;;;;;19.15;43.14;99484.03;5008088;28;19923;-72
2021/10/01 13:09:53;;;;;;;;;;;;;;;19.12;42.57;99491.47;4992931;28;19917;-72
2021/10/01 13:12:33;;;;;;;;;;;;;;;19.08;41.96;99491.75;4992032;28;19921;-72
2021/10/01 13:15:08;;;;;;;;;;;;;;;19.03;41.89;99485.13;4992727;28;20000;-72
2021/10/01 13:17:34;;;;;;;;;;;;;;;19.03;42.26;99479.78;4993253;28;19947;-72
2021/10/01 13:19:59;;;;;;;;;;;;;;;19.06;42.16;99479.50;4991289;28;20020;-72
2021/10/01 13:22:25;;;;;;;;;;;;;;;18.97;42.61;99481.16;4992361;28;20004;-72
2021/10/01 13:24:56;;;;;;;;;;;;;;;18.92;42.65;99474.53;4993275;28;20381;-72
2021/10/01 13:27:21;;;;;;;;;;;;;;;18.76;42.27;99475.06;4992426;28;19917;-73
2021/10/01 13:29:47;;;;;;;;;;;;;;;18.78;43.21;99476.63;4992365;28;19914;-73
2021/10/01 13:32:12;;;;;;;;;;;;;;;18.75;43.31;99481.34;4988692;28;19944;-72
2021/10/01 13:34:38;;;;;;;;;;;;;;;18.81;43.78;99460.31;4973883;28;19918;-72
2021/10/01 13:37:03;;;;;;;;;;;;;;;18.85;44.03;99468.91;4973136;28;19988;-73
2021/10/01 13:39:28;;;;;;;;;;;;;;;18.86;43.07;99466.09;4972995;28;19914;-72
2021/10/01 13:41:53;;;;;;;;;;;;;;;18.77;42.92;99460.72;4970681;28;20017;-72
2021/10/01 13:44:19;;;;;;;;;;;;;;;18.66;43.63;99454.47;4972535;28;19929;-73
2021/10/01 13:46:44;;;;;;;;;;;;;;;18.58;43.88;99461.47;4974800;28;19914;-73
2021/10/01 13:49:10;;;;;;;;;;;;;;;18.50;43.70;99463.97;4972904;28;19921;-72
2021/10/01 13:51:35;;;;;;;;;;;;;;;18.47;43.45;99457.06;4972916;28;20438;-72
2021/10/01 13:54:00;;;;;;;;;;;;;;;18.41;43.16;99454.94;4972931;28;19945;-71
2021/10/01 13:56:25;;;;;;;;;;;;;;;18.42;43.22;99456.63;4972348;28;20290;-73
2021/10/01 13:58:50;;;;;;;;;;;;;;;18.36;43.31;99450.03;4972888;28;19953;-72
2021/10/01 14:01:16;;;;;;;;;;;;;;;18.22;43.40;99456.53;4971172;28;19914;-71
2021/10/01 14:03:41;;;;;;;;;;;;;;;18.12;43.38;99452.13;4971651;28;20174;-72
2021/10/01 14:06:06;;;;;;;;;;;;;;;18.10;43.96;99448.75;4971823;28;19914;-72
2021/10/01 14:08:32;;;;;;;;;;;;;;;18.10;44.11;99443.41;4972880;28;19921;-72
2021/10/01 14:10:57;;;;;;;;;;;;;;;18.00;44.03;99440.69;4972408;28;19922;-72
2021/10/01 14:13:22;;;;;;;;;;;;;;;17.95;43.91;99437.56;4972419;28;20406;-72
2021/10/01 14:15:49;;;;;;;;;;;;;;;17.99;44.52;99422.97;4972827;28;20318;-73
2021/10/01 14:18:15;;;;;;;;;;;;;;;17.93;44.55;99413.69;4991885;23;19945;-74
2021/10/01 14:20:40;;;;;;;;;;;;;;;17.88;45.28;99423.91;4992290;28;19917;-72